Pleasant Plains, Illinois
Current Conditions -  °F | °C
As of 5:52 AM on Thursday 29 Jan 2015 (Local Time) from KSPI Reporting Station
Overcast Overcast  
Wind Chill: 31°   Ceiling: 1900
Heat Index: 41°   Visibility: 10mi
Dew Point: 33°   Wind: 23mph
Humidity: 73%   Direction: 300°WNW
Pressure: 29.83"   Gusts: 32mph
Location:  39.87°N, 89.92°W
Report Text: KSPI 291152Z 30020G28KT 10SM OVC019 05/01 A2983 RMK AO2 PK WND 29030/1133 SLP103 70001 T00500006 10078 20050 53036
Loading
Personal Weather Stations






























Interactive Weather Map New forecast layout! Learn more

10-Day Weather Forecast

Advertisements
Track Severe Weather on mobile